Time;durP1;ratioP1;P1;durP2;ratioP2;P2;SDS_P1;SDS_P2;PMS_P1;PMS_P2;Temp;Humidity;BMP_temperature;BMP_pressure;BME280_temperature;BME280_humidity;BME280_pressure;Samples;Min_cycle;Max_cycle;Signal;HPM_P1;HPM_P2
2022/11/06 09:08:26;;;;;;;11.13;9.10;;;;;;;7.57;100.00;99055.44;5108534;28;21043;-75
2022/11/06 09:10:54;;;;;;;13.23;9.80;;;;;;;7.99;100.00;99033.22;5141812;27;40708;-74
2022/11/06 09:13:22;;;;;;;12.23;9.50;;;;;;;8.33;96.88;99045.63;5107827;28;40640;-75
2022/11/06 09:15:49;;;;;;;10.57;8.53;;;;;;;8.49;96.72;99025.44;5107420;28;42165;-75
2022/11/06 09:18:16;;;;;;;10.57;8.17;;;;;;;8.68;93.92;99028.81;5104865;28;42954;-76
2022/11/06 09:20:44;;;;;;;9.73;8.27;;;;;;;8.83;93.37;99035.09;5102227;28;39341;-75
2022/11/06 09:23:12;;;;;;;8.83;7.93;;;;;;;8.93;91.59;99029.25;5107420;28;42475;-75
2022/11/06 09:25:41;;;;;;;10.17;7.43;;;;;;;9.06;91.41;99032.09;5107123;28;42647;-75
2022/11/06 09:28:09;;;;;;;10.03;7.63;;;;;;;9.20;90.01;99034.00;5089920;28;42038;-75
2022/11/06 09:30:36;;;;;;;11.70;8.03;;;;;;;9.27;88.16;99038.03;5108265;28;40990;-75
2022/11/06 09:33:04;;;;;;;11.47;8.33;;;;;;;9.33;87.59;99029.75;5106801;28;40592;-75
2022/11/06 09:35:33;;;;;;;13.27;8.93;;;;;;;9.44;87.43;99042.38;5107053;28;43638;-75
2022/11/06 09:38:02;;;;;;;11.20;8.87;;;;;;;9.61;87.10;99040.50;5106633;28;42016;-75
2022/11/06 09:40:34;;;;;;;10.57;8.00;;;;;;;9.88;86.88;99029.34;5108111;28;40121;-74
2022/11/06 09:43:11;;;;;;;10.67;8.97;;;;;;;10.20;85.31;99036.28;5107838;28;42558;-76
2022/11/06 09:45:40;;;;;;;9.83;8.50;;;;;;;10.85;82.35;99035.97;5106731;28;42207;-75
2022/11/06 09:48:17;;;;;;;10.23;8.03;;;;;;;11.43;81.61;99039.38;5089662;28;42123;-75
2022/11/06 09:50:49;;;;;;;9.53;8.27;;;;;;;11.94;81.33;99034.34;5106752;28;38911;-75
2022/11/06 09:53:24;;;;;;;9.27;6.63;;;;;;;12.42;79.56;99051.50;5103608;28;42116;-76
2022/11/06 09:55:53;;;;;;;8.73;7.23;;;;;;;13.08;76.67;99050.53;5105724;28;41954;-75
2022/11/06 09:58:26;;;;;;;7.73;6.93;;;;;;;13.51;76.77;99044.84;5105059;28;42473;-77
2022/11/06 10:00:54;;;;;;;7.60;6.77;;;;;;;14.89;72.35;99044.34;5089642;28;40011;-77
2022/11/06 10:03:29;;;;;;;7.20;6.50;;;;;;;16.54;65.40;99014.00;5078789;28;44072;-76
2022/11/06 10:05:57;;;;;;;7.90;6.53;;;;;;;18.57;57.95;99082.63;5103179;28;42784;-76
2022/11/06 10:08:28;;;;;;;7.67;6.87;;;;;;;19.24;56.50;99076.41;5089265;28;42743;-75
2022/11/06 10:11:03;;;;;;;6.87;5.90;;;;;;;20.11;53.76;99059.94;5089473;28;40032;-76
2022/11/06 10:13:51;;;;;;;8.10;6.60;;;;;;;21.48;47.90;99119.59;5089496;28;41242;-77
2022/11/06 10:16:30;;;;;;;6.67;6.07;;;;;;;22.85;44.19;99123.88;5089086;28;43085;-76
2022/11/06 10:19:08;;;;;;;7.87;6.47;;;;;;;24.76;39.78;99128.28;5079166;28;43063;-77
2022/11/06 10:21:46;;;;;;;5.67;5.17;;;;;;;26.59;37.47;99136.81;5077787;28;39404;-77
2022/11/06 10:24:22;;;;;;;6.30;5.80;;;;;;;27.85;35.48;99123.34;5055541;28;42101;-77
2022/11/06 10:26:54;;;;;;;6.20;5.70;;;;;;;28.44;33.43;99130.16;5055135;28;43169;-77
2022/11/06 10:29:50;;;;;;;5.93;5.43;;;;;;;28.78;33.11;99116.47;5055608;28;41484;-78
2022/11/06 10:32:34;;;;;;;5.80;5.40;;;;;;;29.12;31.38;99129.13;5062970;28;40595;-77
2022/11/06 10:35:06;;;;;;;5.67;5.17;;;;;;;29.09;31.50;99125.97;5078709;28;41672;-76
2022/11/06 10:37:41;;;;;;;6.03;5.43;;;;;;;29.36;29.67;99133.13;5072510;28;42699;-76
2022/11/06 10:40:17;;;;;;;6.47;5.87;;;;;;;29.80;29.38;99131.63;5073957;28;41631;-79
2022/11/06 10:42:49;;;;;;;5.68;5.07;;;;;;;30.36;29.05;99121.00;5080828;28;40650;-75
2022/11/06 10:45:19;;;;;;;5.78;5.20;;;;;;;31.74;27.54;99119.28;5055304;28;42072;-76
2022/11/06 10:47:51;;;;;;;5.50;5.00;;;;;;;32.85;24.80;99137.41;5055080;28;41616;-75
2022/11/06 10:50:19;;;;;;;5.35;4.95;;;;;;;32.58;25.27;99120.44;5072386;28;41309;-75
2022/11/06 10:52:53;;;;;;;5.22;4.78;;;;;;;31.97;26.46;99107.66;5071815;28;39287;-75
2022/11/06 10:55:45;;;;;;;4.77;4.37;;;;;;;31.17;27.68;99093.00;5072255;28;41758;-76
2022/11/06 10:58:15;;;;;;;5.17;4.77;;;;;;;30.64;27.04;99090.63;5055090;28;42709;-77
2022/11/06 11:00:44;;;;;;;6.13;5.63;;;;;;;28.94;28.36;99039.72;5073621;28;42136;-75
2022/11/06 11:03:23;;;;;;;6.57;6.00;;;;;;;27.99;29.40;99056.19;5080497;28;39787;-76
2022/11/06 11:05:51;;;;;;;5.40;4.90;;;;;;;28.12;29.88;99039.91;5075666;28;40845;-74
2022/11/06 11:08:36;;;;;;;5.83;5.30;;;;;;;28.40;29.28;99049.91;5090655;28;42290;-76
2022/11/06 11:11:05;;;;;;;6.50;5.50;;;;;;;28.43;29.81;99035.88;5090885;28;43086;-75
2022/11/06 11:13:34;;;;;;;5.33;4.83;;;;;;;28.47;28.97;99031.66;5074708;28;40101;-79
2022/11/06 11:16:03;;;;;;;5.57;5.10;;;;;;;29.12;28.93;99021.91;5092216;28;42797;-79
2022/11/06 11:18:32;;;;;;;4.30;4.00;;;;;;;30.09;27.81;99005.53;5090951;28;43410;-78
2022/11/06 11:21:15;;;;;;;4.80;4.38;;;;;;;31.42;25.30;99028.16;5092002;28;43166;-76
2022/11/06 11:23:43;;;;;;;4.40;4.00;;;;;;;32.61;24.24;99026.75;5089148;28;40794;-78
2022/11/06 11:26:22;;;;;;;4.63;4.20;;;;;;;33.61;23.42;99027.63;5092176;28;42489;-76
2022/11/06 11:28:54;;;;;;;3.90;3.65;;;;;;;34.37;23.51;99031.22;5108319;28;43382;-74
2022/11/06 11:31:29;;;;;;;4.50;4.10;;;;;;;35.03;21.57;99030.50;5089775;28;42354;-77
2022/11/06 11:34:00;;;;;;;4.78;4.38;;;;;;;35.24;21.68;99024.22;5109128;28;39018;-74
2022/11/06 11:36:47;;;;;;;4.18;3.85;;;;;;;35.40;20.93;99010.72;5109247;28;40904;-79
2022/11/06 11:39:16;;;;;;;4.43;4.03;;;;;;;35.67;20.62;99002.56;5122793;27;42470;-77
2022/11/06 11:41:44;;;;;;;4.68;4.00;;;;;;;35.79;20.53;98995.88;5092540;28;43098;-75
2022/11/06 11:44:16;;;;;;;4.13;3.83;;;;;;;36.04;19.99;98989.84;5125833;27;40645;-77
2022/11/06 11:46:51;;;;;;;4.20;3.90;;;;;;;36.27;20.26;98988.75;5091450;28;41990;-79
2022/11/06 11:49:27;;;;;;;4.03;3.72;;;;;;;36.78;19.67;98981.00;5122597;27;43889;-77
2022/11/06 11:51:56;;;;;;;3.50;3.17;;;;;;;37.15;19.76;98972.75;5090864;28;42147;-77
2022/11/06 11:54:27;;;;;;;3.85;3.58;;;;;;;37.15;19.02;98981.03;5091652;28;39902;-80
2022/11/06 11:56:57;;;;;;;4.28;3.97;;;;;;;37.14;19.43;98969.16;5108076;28;42368;-77
2022/11/06 11:59:28;;;;;;;6.07;5.20;;;;;;;37.14;18.81;98985.72;5074540;28;41626;-78
2022/11/06 12:02:02;;;;;;;4.50;4.20;;;;;;;36.90;19.08;98967.84;5091354;28;42585;-77
2022/11/06 12:04:35;;;;;;;5.25;4.82;;;;;;;36.60;18.79;98963.69;5074433;28;40080;-75
2022/11/06 12:07:05;;;;;;;6.00;5.50;;;;;;;36.36;19.09;98956.84;5090795;28;40652;-77
2022/11/06 12:09:42;;;;;;;5.18;4.68;;;;;;;35.97;19.36;98964.41;5092611;28;43604;-77
2022/11/06 12:12:21;;;;;;;4.95;4.55;;;;;;;35.20;20.32;98959.75;5091152;28;42183;-79
2022/11/06 12:15:05;;;;;;;5.47;5.07;;;;;;;35.36;20.15;98962.75;5108856;28;40080;-77
2022/11/06 12:17:37;;;;;;;5.10;4.70;;;;;;;35.63;19.64;98950.72;5090507;28;41932;-77
2022/11/06 12:20:13;;;;;;;4.35;3.95;;;;;;;35.73;19.54;98952.78;5122651;27;42679;-77
2022/11/06 12:22:46;;;;;;;4.75;4.35;;;;;;;35.78;19.62;98941.84;5091066;28;40468;-75
2022/11/06 12:25:19;;;;;;;5.00;4.60;;;;;;;35.16;19.54;98930.19;5122491;27;40764;-79
2022/11/06 12:27:51;;;;;;;5.25;4.35;;;;;;;34.82;20.39;98918.41;5091361;28;41925;-75
2022/11/06 12:30:20;;;;;;;4.88;4.50;;;;;;;34.80;20.17;98917.81;5088261;28;42755;-77
2022/11/06 12:32:59;;;;;;;4.85;4.38;;;;;;;34.93;19.64;98920.22;5092192;28;42872;-76
2022/11/06 12:35:29;;;;;;;4.35;4.05;;;;;;;34.40;19.71;98899.53;5088260;28;40234;-75
2022/11/06 12:38:06;;;;;;;4.47;4.18;;;;;;;34.07;19.96;98877.47;5090718;28;42686;-76
2022/11/06 12:40:38;;;;;;;4.35;4.05;;;;;;;34.32;19.57;98886.19;5090889;28;43265;-79
2022/11/06 12:43:16;;;;;;;4.10;3.80;;;;;;;34.14;19.34;98887.22;5107526;28;42244;-78
2022/11/06 12:46:03;;;;;;;5.38;4.97;;;;;;;33.26;20.21;98886.81;5122208;27;40974;-77
2022/11/06 12:48:54;;;;;;;5.37;4.97;;;;;;;31.14;22.47;98850.81;5087762;28;42009;-78
2022/11/06 12:51:33;;;;;;;6.30;5.80;;;;;;;29.43;24.22;98858.38;5036276;28;43130;-79
2022/11/06 12:54:18;;;;;;;7.07;6.37;;;;;;;28.23;25.68;98834.25;5087798;28;42370;-76
2022/11/06 12:56:56;;;;;;;6.17;5.67;;;;;;;27.78;26.31;98814.09;5090453;28;38535;-75
2022/11/06 12:59:38;;;;;;;7.90;7.20;;;;;;;26.73;27.08;98770.97;5107838;28;41195;-75
2022/11/06 13:02:22;;;;;;;7.37;6.60;;;;;;;25.65;28.43;98787.66;5090374;28;42789;-75
2022/11/06 13:04:59;;;;;;;7.43;6.83;;;;;;;24.54;30.23;98779.78;5121977;27;41917;-76
2022/11/06 13:07:44;;;;;;;7.30;6.70;;;;;;;23.51;31.85;98756.03;5073531;28;41502;-77
2022/11/06 13:10:31;;;;;;;8.03;6.47;;;;;;;22.53;33.72;98746.72;5088877;28;42752;-76
2022/11/06 13:13:15;;;;;;;7.47;6.70;;;;;;;21.64;35.14;98738.78;5091757;28;42987;-75
2022/11/06 13:15:53;;;;;;;7.83;7.13;;;;;;;20.70;36.89;98725.66;5090583;28;42900;-81
2022/11/06 13:18:25;;;;;;;7.33;6.57;;;;;;;20.01;37.85;98721.25;5090510;28;39078;-77
2022/11/06 13:21:00;;;;;;;7.20;6.50;;;;;;;19.39;38.79;98720.44;5121569;27;42286;-75
2022/11/06 13:23:33;;;;;;;7.43;6.73;;;;;;;18.94;39.75;98713.28;5121652;27;43128;-76
2022/11/06 13:26:07;;;;;;;7.30;6.60;;;;;;;18.55;40.79;98703.75;5090189;28;40938;-76
2022/11/06 13:28:39;;;;;;;6.77;6.07;;;;;;;18.33;41.21;98704.16;5088597;28;40257;-77
2022/11/06 13:31:11;;;;;;;7.77;7.07;;;;;;;18.09;42.42;98696.63;5121632;27;41804;-76
2022/11/06 13:33:42;;;;;;;9.07;6.93;;;;;;;17.90;42.45;98697.56;5088011;28;42814;-74
2022/11/06 13:36:11;;;;;;;7.07;6.37;;;;;;;17.73;42.91;98692.94;5088247;28;42298;-76
2022/11/06 13:38:44;;;;;;;7.23;6.50;;;;;;;17.54;43.23;98689.31;5124188;27;40465;-74
2022/11/06 13:41:15;;;;;;;7.17;6.47;;;;;;;17.34;43.30;98700.16;5072701;28;41374;-76
2022/11/06 13:43:45;;;;;;;7.10;6.40;;;;;;;17.01;43.11;98696.09;5107149;28;42015;-78
2022/11/06 13:46:25;;;;;;;7.10;6.40;;;;;;;16.54;44.09;98679.81;5089607;28;41942;-77
2022/11/06 13:49:01;;;;;;;7.73;6.90;;;;;;;16.44;44.65;98668.28;5089747;28;40557;-75
2022/11/06 13:51:42;;;;;;;7.30;6.47;;;;;;;16.41;44.49;98665.88;5088211;28;41824;-75
2022/11/06 13:54:21;;;;;;;7.10;6.40;;;;;;;16.01;44.89;98642.69;5108752;27;42749;-75
2022/11/06 13:57:16;;;;;;;8.00;6.97;;;;;;;15.76;45.31;98640.47;5091780;28;42528;-75
2022/11/06 14:00:03;;;;;;;8.20;7.07;;;;;;;15.74;46.51;98643.25;5075709;28;38982;-74
2022/11/06 14:03:09;;;;;;;8.23;7.37;;;;;;;15.59;46.45;98654.41;5092293;28;41554;-74
2022/11/06 14:05:47;;;;;;;7.50;6.63;;;;;;;15.40;46.99;98660.47;5094689;28;43215;-76
2022/11/06 14:08:20;;;;;;;6.70;6.00;;;;;;;15.17;47.36;98643.75;5109800;28;42695;-74
2022/11/06 14:10:54;;;;;;;6.37;5.77;;;;;;;15.25;47.83;98667.09;5091497;28;40023;-76
2022/11/06 14:13:28;;;;;;;7.13;5.90;;;;;;;15.11;47.79;98646.91;5089583;28;41656;-76
2022/11/06 14:16:27;;;;;;;6.93;6.10;;;;;;;15.06;48.09;98657.16;5088040;28;43979;-76
2022/11/06 14:19:12;;;;;;;7.37;6.60;;;;;;;14.91;48.71;98637.09;5082054;28;42082;-74
2022/11/06 14:21:49;;;;;;;10.13;8.10;;;;;;;14.71;49.49;98641.44;5090172;28;39967;-74
2022/11/06 14:24:40;;;;;;;11.40;8.57;;;;;;;14.42;50.13;98630.50;5075857;28;40655;-76
2022/11/06 14:27:13;;;;;;;9.80;8.13;;;;;;;14.19;50.91;98623.50;5071034;28;41965;-76
2022/11/06 14:30:04;;;;;;;9.37;7.60;;;;;;;14.01;51.11;98631.13;5056023;28;41702;-77
2022/11/06 14:32:46;;;;;;;8.67;6.70;;;;;;;13.89;51.52;98614.34;5091283;28;40656;-77
2022/11/06 14:35:50;;;;;;;7.50;6.47;;;;;;;13.80;52.18;98609.75;5090683;28;41711;-75
2022/11/06 14:38:37;;;;;;;9.00;6.87;;;;;;;13.68;52.49;98613.38;5090597;28;41444;-75
2022/11/06 14:41:48;;;;;;;8.10;7.30;;;;;;;13.50;54.22;98614.81;5091938;28;43323;-75
2022/11/06 14:44:42;;;;;;;8.90;7.27;;;;;;;13.27;54.54;98625.44;5087215;28;38599;-76
2022/11/06 14:47:26;;;;;;;6.93;6.23;;;;;;;13.11;54.72;98627.53;5071074;28;40552;-75
2022/11/06 14:49:56;;;;;;;7.27;6.57;;;;;;;12.95;55.05;98624.38;5086705;28;42522;-75
2022/11/06 14:52:25;;;;;;;7.13;6.43;;;;;;;12.89;56.07;98624.81;5086291;28;43414;-74
2022/11/06 14:54:58;;;;;;;8.10;6.53;;;;;;;12.74;55.56;98620.66;5087860;28;38962;-76
2022/11/06 14:57:51;;;;;;;8.33;6.60;;;;;;;12.67;56.57;98624.75;5089517;28;42368;-77
2022/11/06 15:00:48;;;;;;;10.30;7.67;;;;;;;12.54;57.78;98609.72;5075958;28;43374;-75
2022/11/06 15:03:20;;;;;;;8.57;7.27;;;;;;;12.44;57.10;98603.41;5087743;28;42958;-76
2022/11/06 15:05:49;;;;;;;8.73;7.03;;;;;;;12.24;58.11;98580.09;5088382;28;39914;-76
2022/11/06 15:08:49;;;;;;;7.60;6.37;;;;;;;12.29;58.13;98604.53;5071137;28;41735;-76
2022/11/06 15:11:49;;;;;;;7.63;6.50;;;;;;;12.18;58.73;98599.16;5070627;28;43591;-77
2022/11/06 15:15:03;;;;;;;8.70;6.93;;;;;;;12.07;59.04;98591.97;5088370;28;43090;-74
2022/11/06 15:17:36;;;;;;;9.80;7.17;;;;;;;11.96;59.97;98591.06;5013819;28;41531;-75
2022/11/06 15:20:22;;;;;;;9.37;7.70;;;;;;;11.87;60.06;98592.53;5071502;28;40720;-75
2022/11/06 15:22:59;;;;;;;11.10;7.63;;;;;;;11.80;59.88;98591.31;5086567;28;42789;-74
2022/11/06 15:25:28;;;;;;;9.30;7.17;;;;;;;11.67;60.15;98583.34;5083810;28;42634;-75
2022/11/06 15:28:04;;;;;;;9.83;7.70;;;;;;;11.61;61.27;98580.28;5086529;28;40499;-75
2022/11/06 15:30:41;;;;;;;10.00;7.87;;;;;;;11.55;61.34;98592.16;5083787;28;41665;-77
2022/11/06 15:33:15;;;;;;;9.17;7.63;;;;;;;11.47;61.85;98589.22;5088601;28;44589;-76
2022/11/06 15:35:46;;;;;;;10.07;8.37;;;;;;;11.39;61.89;98602.16;5073496;28;41746;-76
2022/11/06 15:38:18;;;;;;;8.43;6.87;;;;;;;11.31;62.15;98588.59;5088257;28;39062;-76
2022/11/06 15:40:46;;;;;;;7.57;6.60;;;;;;;11.09;62.48;98570.69;5087623;28;41649;-75
2022/11/06 15:43:24;;;;;;;8.13;6.80;;;;;;;11.19;62.47;98594.75;5087584;28;41781;-75
2022/11/06 15:46:05;;;;;;;7.90;6.70;;;;;;;11.11;62.42;98604.09;5072696;28;41364;-76
2022/11/06 15:48:35;;;;;;;7.80;6.90;;;;;;;11.06;62.40;98600.88;5085095;28;40026;-76
2022/11/06 15:51:02;;;;;;;9.00;7.57;;;;;;;10.95;62.87;98590.19;5087334;28;41562;-77
2022/11/06 15:53:30;;;;;;;9.53;7.07;;;;;;;10.97;62.67;98596.22;5086196;28;42959;-77
2022/11/06 15:56:01;;;;;;;8.80;7.90;;;;;;;10.94;63.34;98601.72;5073082;28;41161;-76
2022/11/06 15:58:31;;;;;;;9.07;6.77;;;;;;;10.73;63.86;98571.41;5087718;28;41171;-76
2022/11/06 16:01:00;;;;;;;8.00;7.07;;;;;;;10.85;64.46;98596.22;5088821;28;41704;-77
2022/11/06 16:03:30;;;;;;;9.57;8.00;;;;;;;10.80;64.27;98596.50;5088296;28;43762;-76
2022/11/06 16:06:02;;;;;;;9.47;7.77;;;;;;;10.75;64.29;98586.25;5071978;28;41250;-76
2022/11/06 16:08:31;;;;;;;9.63;8.13;;;;;;;10.65;65.96;98584.28;5087544;28;40277;-74
2022/11/06 16:11:00;;;;;;;9.33;8.07;;;;;;;10.61;65.71;98577.53;5070434;28;44688;-73
2022/11/06 16:13:28;;;;;;;7.73;6.67;;;;;;;10.51;65.01;98565.84;5081239;28;43767;-77
2022/11/06 16:15:59;;;;;;;9.00;7.30;;;;;;;10.61;64.82;98586.31;5088682;28;42157;-76
2022/11/06 16:18:31;;;;;;;9.87;7.97;;;;;;;10.57;64.97;98581.31;5087584;28;40088;-75
2022/11/06 16:21:10;;;;;;;9.37;7.63;;;;;;;10.50;65.08;98582.69;5072427;28;40755;-76
2022/11/06 16:23:42;;;;;;;9.97;7.03;;;;;;;10.33;65.19;98574.06;5088911;28;43760;-75
2022/11/06 16:26:14;;;;;;;8.30;7.20;;;;;;;10.26;65.26;98587.81;5090686;28;42845;-74
2022/11/06 16:28:44;;;;;;;8.87;7.37;;;;;;;10.29;64.90;98601.66;5087437;28;41081;-73
2022/11/06 16:31:15;;;;;;;8.60;7.57;;;;;;;10.17;65.20;98589.19;5091586;28;41854;-74
2022/11/06 16:33:54;;;;;;;9.37;7.13;;;;;;;10.09;65.36;98596.78;5107227;28;42060;-76
2022/11/06 16:36:23;;;;;;;10.73;7.80;;;;;;;10.15;65.42;98601.69;5088066;28;42964;-75
2022/11/06 16:38:52;;;;;;;9.47;7.43;;;;;;;10.05;65.10;98600.56;5124405;27;41089;-76
2022/11/06 16:41:38;;;;;;;11.33;8.50;;;;;;;9.99;66.41;98593.06;5073228;28;41614;-76
2022/11/06 16:44:23;;;;;;;13.03;9.53;;;;;;;9.87;66.21;98596.47;5087810;28;43284;-75
2022/11/06 16:47:17;;;;;;;13.00;9.50;;;;;;;9.76;66.20;98580.44;5091470;28;43149;-75
2022/11/06 16:49:48;;;;;;;11.93;9.30;;;;;;;9.68;67.20;98571.19;5070458;28;40826;-76
2022/11/06 16:52:31;;;;;;;11.60;9.43;;;;;;;9.64;67.06;98567.03;5052813;28;42972;-75
2022/11/06 16:55:01;;;;;;;13.13;9.87;;;;;;;9.58;67.46;98571.88;5051807;28;43220;-77
2022/11/06 16:57:33;;;;;;;11.60;9.23;;;;;;;9.55;67.35;98570.25;5067854;28;43315;-75
2022/11/06 17:00:04;;;;;;;13.30;10.23;;;;;;;9.52;67.30;98581.03;5052875;28;40897;-74
2022/11/06 17:02:36;;;;;;;11.83;9.50;;;;;;;9.50;66.93;98577.66;5068772;28;40541;-73
2022/11/06 17:05:16;;;;;;;13.07;9.93;;;;;;;9.37;67.44;98558.22;5067091;28;42681;-75
2022/11/06 17:07:46;;;;;;;15.03;10.97;;;;;;;9.49;67.72;98586.53;5070808;28;42447;-75
2022/11/06 17:10:36;;;;;;;11.83;9.53;;;;;;;9.51;67.71;98579.34;5069686;28;39070;-76
2022/11/06 17:13:11;;;;;;;13.40;9.70;;;;;;;9.42;67.95;98563.19;5082516;28;42515;-74
2022/11/06 17:15:40;;;;;;;12.43;10.00;;;;;;;9.48;67.91;98581.34;5085788;28;44287;-75
2022/11/06 17:18:07;;;;;;;13.67;10.93;;;;;;;9.56;67.80;98595.75;5088094;28;43918;-74
2022/11/06 17:20:37;;;;;;;14.27;10.77;;;;;;;9.57;67.67;98588.69;5072507;28;39089;-75
2022/11/06 17:23:06;;;;;;;13.97;10.37;;;;;;;9.56;67.33;98586.97;5071909;28;41758;-74
2022/11/06 17:25:33;;;;;;;13.03;10.13;;;;;;;9.56;68.22;98590.47;5091100;28;43789;-75
2022/11/06 17:28:01;;;;;;;16.60;10.73;;;;;;;9.57;67.93;98578.94;5090100;28;42406;-74
2022/11/06 17:30:28;;;;;;;12.77;10.50;;;;;;;9.58;68.22;98574.53;5094080;28;40016;-76
2022/11/06 17:32:56;;;;;;;14.13;10.57;;;;;;;9.54;68.67;98573.00;5093460;28;42599;-75
2022/11/06 17:35:23;;;;;;;14.20;10.47;;;;;;;9.58;68.51;98580.66;5093693;28;41945;-75
2022/11/06 17:37:51;;;;;;;13.70;10.80;;;;;;;9.58;68.51;98578.00;5076367;28;41553;-76
2022/11/06 17:40:20;;;;;;;13.30;10.63;;;;;;;9.27;67.88;98525.38;5093776;28;40124;-74
2022/11/06 17:42:47;;;;;;;13.60;9.93;;;;;;;9.62;67.92;98587.47;5093573;28;41501;-75
2022/11/06 17:45:15;;;;;;;12.20;9.33;;;;;;;9.61;67.93;98588.41;5076929;28;41623;-73
2022/11/06 17:47:43;;;;;;;14.27;11.60;;;;;;;9.63;67.85;98583.88;5093206;28;41519;-74
2022/11/06 17:50:10;;;;;;;11.90;9.50;;;;;;;9.48;67.84;98546.97;5076687;28;39054;-75
2022/11/06 17:52:38;;;;;;;11.10;9.87;;;;;;;9.64;67.78;98571.50;5076393;28;40631;-76
2022/11/06 17:55:12;;;;;;;13.23;10.07;;;;;;;9.62;67.55;98571.59;5091508;28;43864;-74
2022/11/06 17:57:41;;;;;;;13.77;10.53;;;;;;;9.62;67.90;98582.16;5092561;28;42210;-75
2022/11/06 18:00:10;;;;;;;15.77;12.17;;;;;;;9.63;68.07;98572.44;5094647;28;40826;-75
2022/11/06 18:02:41;;;;;;;16.37;12.17;;;;;;;9.62;68.68;98570.75;5093178;28;42415;-75
2022/11/06 18:05:09;;;;;;;14.63;11.23;;;;;;;9.61;68.75;98575.19;5094479;28;42913;-75
2022/11/06 18:07:37;;;;;;;22.10;16.20;;;;;;;9.62;69.00;98562.81;5092423;28;42179;-75
2022/11/06 18:10:05;;;;;;;18.63;13.83;;;;;;;9.60;69.01;98565.56;5093431;28;40995;-74
2022/11/06 18:12:32;;;;;;;18.27;14.13;;;;;;;9.61;68.82;98558.47;5094356;28;41764;-74
2022/11/06 18:15:01;;;;;;;16.63;12.70;;;;;;;9.61;69.51;98575.19;5093386;28;41685;-74
2022/11/06 18:17:29;;;;;;;15.53;11.80;;;;;;;9.63;68.84;98583.03;5076073;28;40540;-73
2022/11/06 18:19:56;;;;;;;14.17;10.97;;;;;;;9.65;68.70;98584.59;5076469;28;39101;-74
2022/11/06 18:22:24;;;;;;;16.30;12.83;;;;;;;9.66;68.62;98583.66;5092867;28;44141;-74
2022/11/06 18:24:51;;;;;;;13.07;10.17;;;;;;;9.68;68.87;98579.13;5092848;28;44946;-78
2022/11/06 18:27:19;;;;;;;12.90;10.20;;;;;;;9.63;68.58;98565.38;5092782;28;42239;-74
2022/11/06 18:29:46;;;;;;;14.77;11.27;;;;;;;9.52;68.67;98548.50;5076197;28;40462;-75
2022/11/06 18:32:15;;;;;;;14.23;11.03;;;;;;;9.72;68.36;98583.28;5075707;28;40674;-73
2022/11/06 18:34:43;;;;;;;16.47;12.97;;;;;;;9.72;68.78;98572.69;5094038;28;42852;-75
2022/11/06 18:37:11;;;;;;;14.37;10.73;;;;;;;9.75;68.58;98576.09;5094015;28;42259;-73
2022/11/06 18:39:39;;;;;;;16.67;12.50;;;;;;;9.50;69.39;98519.50;5075541;28;39086;-75
2022/11/06 18:42:07;;;;;;;16.97;12.60;;;;;;;9.64;69.41;98537.94;5092867;28;41687;-74
2022/11/06 18:44:40;;;;;;;15.23;12.07;;;;;;;9.80;69.48;98547.56;5075757;28;44704;-74
2022/11/06 18:47:07;;;;;;;14.00;10.90;;;;;;;9.82;69.09;98546.50;5092080;28;43251;-75
2022/11/06 18:49:36;;;;;;;15.03;10.70;;;;;;;9.86;68.87;98547.19;5091914;28;39412;-75
2022/11/06 18:52:04;;;;;;;14.43;11.17;;;;;;;9.88;68.64;98555.88;5075237;28;40678;-75
2022/11/06 18:54:32;;;;;;;12.83;10.20;;;;;;;9.89;68.86;98560.22;5092289;28;43769;-74
2022/11/06 18:56:59;;;;;;;12.63;10.93;;;;;;;9.90;68.84;98553.94;5092377;28;42578;-74
2022/11/06 18:59:28;;;;;;;11.73;10.17;;;;;;;9.85;69.45;98540.19;5075737;28;39196;-75
2022/11/06 19:01:55;;;;;;;14.93;11.60;;;;;;;9.79;69.44;98530.00;5075335;28;41478;-75
2022/11/06 19:04:25;;;;;;;13.97;11.23;;;;;;;9.68;69.58;98520.09;5093378;28;42817;-73
2022/11/06 19:06:54;;;;;;;12.13;9.90;;;;;;;9.75;69.79;98550.50;5075062;28;42895;-74
2022/11/06 19:09:21;;;;;;;14.63;11.17;;;;;;;9.74;70.01;98543.53;5092351;28;40025;-75
2022/11/06 19:11:49;;;;;;;13.20;10.30;;;;;;;9.72;70.37;98543.63;5091789;28;41732;-74
2022/11/06 19:14:17;;;;;;;13.17;10.97;;;;;;;9.70;70.99;98545.50;5092315;28;41709;-75
2022/11/06 19:16:45;;;;;;;13.13;10.23;;;;;;;9.70;70.66;98553.44;5074757;28;42448;-74
2022/11/06 19:19:12;;;;;;;13.67;10.93;;;;;;;9.66;70.90;98538.72;5091565;28;40484;-74
2022/11/06 19:21:44;;;;;;;11.80;9.80;;;;;;;9.67;71.26;98555.41;5091869;28;41706;-76
2022/11/06 19:24:14;;;;;;;11.63;9.70;;;;;;;9.61;71.19;98532.88;5091863;28;42991;-75
2022/11/06 19:26:42;;;;;;;14.37;12.03;;;;;;;9.65;71.50;98537.00;5091600;28;42294;-74
2022/11/06 19:29:09;;;;;;;15.80;12.17;;;;;;;9.62;71.54;98542.50;5072644;28;39957;-78
2022/11/06 19:31:38;;;;;;;14.80;12.67;;;;;;;9.49;72.34;98509.03;5088443;28;42527;-82
2022/11/06 19:34:07;;;;;;;15.57;11.90;;;;;;;9.58;72.14;98527.78;5093100;28;43527;-77
2022/11/06 19:36:35;;;;;;;13.40;10.93;;;;;;;9.57;72.13;98531.38;5091244;28;43136;-74
2022/11/06 19:39:03;;;;;;;16.23;12.60;;;;;;;9.55;72.25;98533.25;5093210;28;40748;-76
2022/11/06 19:41:33;;;;;;;14.43;11.67;;;;;;;9.54;73.04;98526.28;5088837;28;41641;-76
2022/11/06 19:44:00;;;;;;;16.00;12.30;;;;;;;9.54;73.73;98520.13;5075274;28;42234;-79
2022/11/06 19:46:28;;;;;;;15.33;11.67;;;;;;;9.54;73.25;98538.63;5091243;28;43159;-79
2022/11/06 19:48:57;;;;;;;13.13;10.97;;;;;;;9.54;73.00;98552.69;5093004;28;40958;-77
2022/11/06 19:51:26;;;;;;;13.80;10.90;;;;;;;9.57;72.58;98552.53;5091569;28;41183;-75
2022/11/06 19:53:54;;;;;;;12.53;10.10;;;;;;;9.60;72.37;98557.63;5074456;28;44450;-77
2022/11/06 19:56:22;;;;;;;11.50;9.77;;;;;;;9.52;72.46;98544.00;5090735;28;42594;-78
2022/11/06 19:59:00;;;;;;;11.43;10.17;;;;;;;9.44;72.23;98525.16;5074347;28;38884;-79
2022/11/06 20:01:27;;;;;;;11.23;9.27;;;;;;;9.67;72.06;98564.19;5089982;28;42682;-77
2022/11/06 20:03:55;;;;;;;11.43;9.23;;;;;;;9.68;72.08;98555.31;5125730;27;42923;-79
2022/11/06 20:06:22;;;;;;;9.73;8.03;;;;;;;9.72;71.95;98558.63;5070435;28;42364;-78
2022/11/06 20:08:50;;;;;;;9.73;8.30;;;;;;;9.75;71.85;98560.25;5070912;28;38926;-78
2022/11/06 20:11:17;;;;;;;11.57;9.33;;;;;;;9.68;71.79;98547.41;5089305;28;42665;-79
2022/11/06 20:13:46;;;;;;;14.93;10.87;;;;;;;9.79;72.13;98567.00;5092570;28;42794;-79
2022/11/06 20:16:17;;;;;;;11.03;8.70;;;;;;;9.73;72.18;98568.28;5070473;28;41230;-78
2022/11/06 20:18:45;;;;;;;21.20;12.87;;;;;;;9.82;71.96;98572.13;5067930;28;39916;-78
2022/11/06 20:21:13;;;;;;;17.00;11.57;;;;;;;9.83;71.78;98571.16;5087069;28;42667;-76
2022/11/06 20:23:40;;;;;;;14.53;11.07;;;;;;;9.83;72.05;98576.47;5091351;28;42518;-76
2022/11/06 20:26:08;;;;;;;16.23;12.00;;;;;;;9.80;72.06;98574.84;5090711;28;42119;-78
2022/11/06 20:28:36;;;;;;;15.03;11.07;;;;;;;9.83;72.28;98573.81;5091172;28;39876;-78
2022/11/06 20:31:09;;;;;;;16.17;12.07;;;;;;;9.72;72.14;98551.56;5090728;28;41466;-79
2022/11/06 20:34:01;;;;;;;14.60;11.57;;;;;;;9.72;72.81;98551.56;5073736;28;43323;-76
2022/11/06 20:36:32;;;;;;;12.80;10.10;;;;;;;9.70;72.74;98548.16;5091737;28;42485;-76
2022/11/06 20:39:00;;;;;;;14.40;10.50;;;;;;;9.68;72.73;98550.03;5092769;28;40692;-79
2022/11/06 20:41:29;;;;;;;15.63;10.90;;;;;;;9.68;74.47;98550.03;5090595;28;41763;-76
2022/11/06 20:43:57;;;;;;;16.03;12.77;;;;;;;9.69;73.77;98557.03;5091077;28;42840;-81
2022/11/06 20:46:25;;;;;;;14.67;12.07;;;;;;;9.69;74.69;98562.31;5090432;28;41270;-77
2022/11/06 20:48:52;;;;;;;16.00;11.60;;;;;;;9.71;75.20;98555.13;5091008;28;39665;-80
2022/11/06 20:51:24;;;;;;;14.97;10.90;;;;;;;9.66;74.80;98549.28;5091586;28;41441;-77
2022/11/06 20:53:52;;;;;;;14.63;11.53;;;;;;;9.78;75.22;98570.59;5074319;28;42799;-79
2022/11/06 20:56:23;;;;;;;16.60;13.17;;;;;;;9.73;75.40;98550.59;5090524;28;41027;-80
2022/11/06 20:58:53;;;;;;;16.20;12.60;;;;;;;9.73;76.37;98562.97;5089154;28;40051;-82
2022/11/06 21:01:23;;;;;;;15.23;11.90;;;;;;;9.71;76.05;98560.44;5091376;28;41699;-83
2022/11/06 21:03:51;;;;;;;13.27;10.27;;;;;;;9.71;75.38;98565.72;5090622;28;43599;-80
2022/11/06 21:06:23;;;;;;;11.83;10.17;;;;;;;9.64;75.38;98568.84;5088224;28;43166;-77
2022/11/06 21:08:51;;;;;;;11.40;9.40;;;;;;;9.52;75.56;98570.44;5073406;28;39201;-78